• Join FlightAware (Why Join?)
  • Login
  • US Flag 
08:08AM EDT


 

Airport Tracker/Info


-or-


 

Live Flight TrackerFlight Track Log ✈ SKW5517 ✈ 29-Apr-2013 ✈ KDEN - KPSP

Flight Track Log - Related Links

Times and Time Zones

All times are in EDT time to prevent confusion due to time zone crossing. See the SKW5517 flight status page for this flight to view local times or setup timezone preferences in your user account.

Time Position Orientation Groundspeed Altitude Reporting Facility
EDT Latitude Longitude Course Direction KTS MPH feet Rate Location/Type
10:09PM 39.6374 -105.1995 241° Southwest  Level Estimated
10:10PM 39.5809 -105.3305 241° Southwest  Level Estimated
10:11PM 39.5243 -105.4613 241° Southwest  Level Estimated
10:12PM 39.4676 -105.5919 241° Southwest  Level Estimated
10:13PM 39.4107 -105.7224 241° Southwest  Level Estimated
10:14PM 39.3537 -105.8525 241° Southwest  Level Estimated
10:15PM 39.2965 -105.9825 240° Southwest  Level Estimated
10:16PM 39.2392 -106.1123 240° Southwest  Level Estimated
10:17PM 39.1818 -106.2418 240° Southwest  Level Estimated
10:18PM 39.1241 -106.3712 240° Southwest  Level Estimated
10:19PM 39.0664 -106.5003 240° Southwest  Level Estimated
10:20PM 39.0085 -106.6292 240° Southwest  Level Estimated
10:21PM 38.9505 -106.7579 240° Southwest  Level Estimated
10:22PM 38.8923 -106.8864 240° Southwest  Level Estimated
10:23PM 38.8340 -107.0147 240° Southwest  Level Estimated
10:24PM 38.7756 -107.1428 240° Southwest  Level Estimated
10:25PM 38.7170 -107.2706 240° Southwest  Level Estimated
10:26PM 38.6582 -107.3983 240° Southwest  Level Estimated
10:27PM 38.5994 -107.5257 239° Southwest  Level Estimated
10:28PM 38.5404 -107.6529 239° Southwest  Level Estimated
10:29PM 38.4812 -107.7800 239° Southwest  Level Estimated
10:30PM 38.4219 -107.9068 239° Southwest  Level Estimated
10:31PM 38.3625 -108.0334 239° Southwest  Level Estimated
10:32PM 38.3030 -108.1598 239° Southwest  Level Estimated
10:33PM 38.2433 -108.2860 239° Southwest  Level Estimated
10:34PM 38.1834 -108.4120 239° Southwest  Level Estimated
10:35PM 38.1235 -108.5378 239° Southwest  Level Estimated
10:36PM 38.0634 -108.6633 239° Southwest  Level Estimated
10:37PM 38.0032 -108.7887 239° Southwest  Level Estimated
10:38PM 37.9428 -108.9138 239° Southwest  Level Estimated
10:39PM 37.8823 -109.0388 239° Southwest  Level Estimated
10:40PM 37.8217 -109.1636 238° Southwest  Level Estimated
10:41PM 37.7610 -109.2881 238° Southwest  Level Estimated
10:42PM 37.7001 -109.4124 238° Southwest  Level Estimated
10:43PM 37.6391 -109.5366 238° Southwest  Level Estimated
10:44PM 37.5779 -109.6605 238° Southwest  Level Estimated
10:45PM 37.5167 -109.7842 238° Southwest  Level Estimated
10:46PM 37.4553 -109.9078 238° Southwest  Level Estimated
10:47PM 37.3937 -110.0311 238° Southwest  Level Estimated
10:48PM 37.3321 -110.1542 238° Southwest  Level Estimated
10:49PM 37.2703 -110.2771 238° Southwest  Level Estimated
10:50PM 37.2084 -110.3998 238° Southwest  Level Estimated
10:51PM 37.1463 -110.5223 238° Southwest  Level Estimated
10:52PM 37.0842 -110.6447 238° Southwest  Level Estimated
10:53PM 37.0219 -110.7668 237° Southwest  Level Estimated
10:54PM 36.9594 -110.8887 237° Southwest  Level Estimated
10:55PM 36.8969 -111.0104 237° Southwest  Level Estimated
10:56PM 36.8343 -111.1319 237° Southwest  Level Estimated
10:57PM 36.7715 -111.2532 237° Southwest  Level Estimated
10:58PM 36.7085 -111.3743 237° Southwest  Level Estimated
10:59PM 36.6455 -111.4952 237° Southwest  Level Estimated
11:00PM 36.5824 -111.6160 237° Southwest  Level Estimated
11:01PM 36.5191 -111.7365 237° Southwest  Level Estimated
11:02PM 36.4557 -111.8568 237° Southwest  Level Estimated
11:03PM 36.3922 -111.9769 237° Southwest  Level Estimated
11:04PM 36.3285 -112.0968 237° Southwest  Level Estimated
11:05PM 36.2648 -112.2166 237° Southwest  Level Estimated
11:06PM 36.2009 -112.3361 237° Southwest  Level Estimated
11:07PM 36.1369 -112.4555 236° Southwest  Level Estimated
11:08PM 36.0728 -112.5746 236° Southwest  Level Estimated
11:09PM 36.0086 -112.6936 236° Southwest  Level Estimated
11:10PM 35.9442 -112.8123 236° Southwest  Level Estimated
11:11PM 35.8797 -112.9309 236° Southwest  Level Estimated
11:12PM 35.8152 -113.0493 236° Southwest  Level Estimated
11:13PM 35.7505 -113.1674 236° Southwest  Level Estimated
11:14PM 35.6857 -113.2854 236° Southwest  Level Estimated
11:15PM 35.6207 -113.4032 236° Southwest  Level Estimated
11:16PM 35.5557 -113.5209 236° Southwest  Level Estimated
11:17PM 35.4905 -113.6383 236° Southwest  Level Estimated
11:18PM 35.4253 -113.7555 236° Southwest  Level Estimated
11:19PM 35.3599 -113.8725 236° Southwest  Level Estimated
11:20PM 35.2944 -113.9894 236° Southwest  Level Estimated
11:21PM 35.2288 -114.1060 235° Southwest  Level Estimated
11:22PM 35.1631 -114.2225 235° Southwest  Level Estimated
11:23PM 35.0972 -114.3388 235° Southwest  Level Estimated
11:24PM 35.0313 -114.4549 235° Southwest  Level Estimated
11:25PM 34.9652 -114.5708 235° Southwest  Level Estimated
11:26PM 34.8991 -114.6865 235° Southwest  Level Estimated
11:27PM 34.8328 -114.8020 235° Southwest  Level Estimated
11:28PM 34.7664 -114.9174 235° Southwest  Level Estimated
11:29PM 34.6999 -115.0326 235° Southwest  Level Estimated
11:30PM 34.6333 -115.1475 235° Southwest  Level Estimated
11:31PM 34.5666 -115.2623 235° Southwest  Level Estimated
11:32PM 34.4998 -115.3769 235° Southwest  Level Estimated
11:33PM 34.4329 -115.4913 235° Southwest  Level Estimated
11:34PM 34.3659 -115.6056 235° Southwest  Level Estimated
11:35PM 34.2987 -115.7197 235° Southwest  Level Estimated
11:36PM 34.2315 -115.8335 234° Southwest  Level Estimated
11:37PM 34.1642 -115.9472 234° Southwest  Level Estimated
11:38PM 34.0967 -116.0607 234° Southwest  Level Estimated
11:39PM 34.0292 -116.1740 234° Southwest  Level Estimated
11:40PM 33.9615 -116.2872 234° Southwest  Level Estimated
11:41PM 33.8937 -116.4002 234° Southwest  Level Estimated
11:42PM 33.8297 -116.5067 234° Southwest  Level Estimated
11:43PM 33.8297 -116.5067 228° Southwest  Level Estimated
11:44PM 33.8297 -116.5067 228° Southwest  Level Estimated
11:45PM 33.8297 -116.5067 228° Southwest  Level Estimated
11:46PM 33.8297 -116.5067 228° Southwest  Level Estimated
11:47PM 33.8297 -116.5067 228° Southwest  Level Estimated
11:48PM 33.8297 -116.5067 228° Southwest  Level Estimated